createdAt,value
2019-05-20T00:00:32.705Z,12.83
2019-05-20T00:03:03.044Z,13.93
2019-05-20T00:05:33.487Z,12.60
2019-05-20T00:08:08.242Z,16.10
2019-05-20T00:10:38.689Z,18.67
2019-05-20T00:13:09.156Z,18.40
2019-05-20T00:15:39.497Z,17.40
2019-05-20T00:18:09.949Z,19.87
2019-05-20T00:20:40.317Z,23.07
2019-05-20T00:23:10.608Z,21.53
2019-05-20T00:25:40.997Z,21.70
2019-05-20T00:28:11.436Z,17.73
2019-05-20T00:30:41.861Z,20.30
2019-05-20T00:33:15.249Z,25.33
2019-05-20T00:35:45.616Z,25.07
2019-05-20T00:38:17.045Z,28.70
2019-05-20T00:40:47.414Z,30.87
2019-05-20T00:43:17.877Z,33.03
2019-05-20T00:45:48.283Z,32.50
2019-05-20T00:48:18.597Z,29.67
2019-05-20T00:50:48.947Z,30.53
2019-05-20T00:53:19.294Z,32.47
2019-05-20T00:55:49.742Z,31.37
2019-05-20T00:58:20.163Z,31.37
2019-05-20T01:00:50.576Z,31.00
2019-05-20T01:03:20.995Z,31.00
2019-05-20T01:05:51.274Z,32.03
2019-05-20T01:08:21.659Z,33.13
2019-05-20T01:10:52.078Z,31.53
2019-05-20T01:13:22.539Z,29.90
2019-05-20T01:15:52.835Z,32.60
2019-05-20T01:18:23.114Z,28.50
2019-05-20T01:20:54.047Z,29.67
2019-05-20T01:23:24.464Z,31.80
2019-05-20T01:25:54.835Z,28.27
2019-05-20T01:28:25.254Z,29.37
2019-05-20T01:30:55.725Z,26.80
2019-05-20T01:33:26.078Z,30.60
2019-05-20T01:35:56.435Z,28.07
2019-05-20T01:38:27.043Z,28.10
2019-05-20T01:41:00.906Z,27.87
2019-05-20T01:43:31.271Z,25.50
2019-05-20T01:46:01.557Z,28.73
2019-05-20T01:48:31.896Z,29.73
2019-05-20T01:51:02.410Z,25.40
2019-05-20T01:53:32.870Z,27.47
2019-05-20T01:56:03.415Z,26.37
2019-05-20T01:58:33.795Z,27.00
2019-05-20T02:01:04.257Z,27.77
2019-05-20T02:03:34.673Z,28.57
2019-05-20T02:06:05.142Z,27.77
2019-05-20T02:08:35.418Z,29.10
2019-05-20T02:11:05.778Z,26.63
2019-05-20T02:13:54.949Z,27.07
2019-05-20T02:16:25.623Z,27.97
2019-05-20T02:18:56.026Z,28.63
2019-05-20T02:21:26.465Z,28.20
2019-05-20T02:23:56.803Z,26.30
2019-05-20T02:26:27.252Z,30.07
2019-05-20T02:28:57.680Z,29.77
2019-05-20T02:31:28.056Z,26.70
2019-05-20T02:33:59.455Z,28.50
2019-05-20T02:36:29.905Z,28.53
2019-05-20T02:39:00.373Z,27.40
2019-05-20T02:41:30.849Z,28.50
2019-05-20T02:44:01.249Z,28.87
2019-05-20T02:46:32.207Z,28.10
2019-05-20T02:49:02.644Z,28.57
2019-05-20T02:51:33.193Z,29.00
2019-05-20T02:54:03.638Z,26.50
2019-05-20T02:56:34.068Z,30.67
2019-05-20T02:59:05.399Z,27.77
2019-05-20T03:01:35.753Z,27.37
2019-05-20T03:04:12.163Z,25.57
2019-05-20T03:06:38.795Z,26.73
2019-05-20T03:09:12.163Z,28.37
2019-05-20T03:11:41.199Z,28.03
2019-05-20T03:14:11.571Z,27.57
2019-05-20T03:16:41.863Z,28.87
2019-05-20T03:19:12.333Z,27.43
2019-05-20T03:21:42.700Z,26.50
2019-05-20T03:24:13.057Z,28.73
2019-05-20T03:26:43.481Z,29.43
2019-05-20T03:29:13.922Z,28.70
2019-05-20T03:31:44.338Z,27.50
2019-05-20T03:34:42.265Z,26.90
2019-05-20T03:36:46.919Z,26.73
2019-05-20T03:39:17.352Z,28.23
2019-05-20T03:41:47.796Z,28.07
2019-05-20T03:44:18.286Z,27.77
2019-05-20T03:46:48.634Z,27.77
2019-05-20T03:49:18.988Z,28.77
2019-05-20T03:51:52.433Z,25.67
2019-05-20T03:54:21.413Z,28.23
2019-05-20T03:56:51.818Z,29.23
2019-05-20T03:59:22.206Z,27.67
2019-05-20T04:01:52.648Z,25.60
2019-05-20T04:04:25.181Z,25.97
2019-05-20T04:06:55.126Z,25.40
2019-05-20T04:09:25.532Z,25.60
2019-05-20T04:11:55.920Z,25.13
2019-05-20T04:14:26.215Z,25.47
2019-05-20T04:16:56.651Z,24.93
2019-05-20T04:19:27.016Z,27.23
2019-05-20T04:21:57.371Z,25.60
2019-05-20T04:24:27.828Z,26.43
2019-05-20T04:27:00.306Z,25.97
2019-05-20T04:29:30.759Z,25.43
2019-05-20T04:32:01.534Z,28.63
2019-05-20T04:34:32.878Z,26.47
2019-05-20T04:37:03.274Z,28.80
2019-05-20T04:39:33.626Z,27.77
2019-05-20T04:42:06.522Z,25.80
2019-05-20T04:44:36.129Z,31.30
2019-05-20T04:47:06.492Z,29.27
2019-05-20T04:49:36.967Z,29.10
2019-05-20T04:52:07.335Z,28.63
2019-05-20T04:54:37.667Z,30.97
2019-05-20T04:57:08.042Z,33.07
2019-05-20T04:59:38.400Z,25.00
2019-05-20T05:02:08.684Z,27.80
2019-05-20T05:04:39.124Z,25.87
2019-05-20T05:07:09.567Z,26.50
2019-05-20T05:09:40.912Z,23.77
2019-05-20T05:12:11.401Z,26.77
2019-05-20T05:14:41.727Z,25.80
2019-05-20T05:17:12.361Z,27.20
2019-05-20T05:19:42.724Z,26.10
2019-05-20T05:22:13.152Z,24.67
2019-05-20T05:24:43.828Z,26.53
2019-05-20T05:27:14.527Z,23.03
2019-05-20T05:29:44.960Z,26.43
2019-05-20T05:32:17.496Z,25.90
2019-05-20T05:34:47.899Z,25.37
2019-05-20T05:37:18.296Z,25.07
2019-05-20T05:39:48.972Z,24.83
2019-05-20T05:42:19.302Z,25.17
2019-05-20T05:44:49.652Z,24.33
2019-05-20T05:47:20.038Z,24.57
2019-05-20T05:49:50.500Z,26.90
2019-05-20T05:52:22.883Z,25.13
2019-05-20T05:54:52.916Z,25.27
2019-05-20T05:57:23.288Z,24.07
2019-05-20T05:59:53.654Z,23.93
2019-05-20T06:02:24.085Z,24.83
2019-05-20T06:04:54.530Z,25.40
2019-05-20T06:07:24.909Z,24.43
2019-05-20T06:09:55.244Z,27.07
2019-05-20T06:12:25.632Z,23.43
2019-05-20T06:14:56.058Z,27.20
2019-05-20T06:17:26.427Z,25.40
2019-05-20T06:19:56.787Z,25.67
2019-05-20T06:22:27.252Z,27.00
2019-05-20T06:24:57.680Z,23.27
2019-05-20T06:27:28.139Z,23.50
2019-05-20T06:29:58.811Z,25.50
2019-05-20T06:32:29.377Z,24.53
2019-05-20T06:34:59.792Z,26.40
2019-05-20T06:37:32.126Z,24.97
2019-05-20T06:40:03.239Z,26.40
2019-05-20T06:42:33.650Z,24.90
2019-05-20T06:45:04.464Z,27.17
2019-05-20T06:47:34.760Z,23.00
2019-05-20T06:50:06.317Z,27.37
2019-05-20T06:52:36.757Z,23.40
2019-05-20T06:55:08.295Z,23.70
2019-05-20T06:57:38.740Z,23.27
2019-05-20T07:00:10.396Z,24.67
2019-05-20T07:02:40.939Z,25.73
2019-05-20T07:05:11.579Z,26.33
2019-05-20T07:07:43.012Z,24.27
2019-05-20T07:10:13.448Z,23.27
2019-05-20T07:12:43.764Z,21.93
2019-05-20T07:15:14.204Z,23.67
2019-05-20T07:17:44.589Z,25.57
2019-05-20T07:20:15.017Z,23.67
2019-05-20T07:22:55.783Z,22.80
2019-05-20T07:25:17.741Z,24.73
2019-05-20T07:27:48.240Z,25.23
2019-05-20T07:30:19.512Z,24.43
2019-05-20T07:32:50.122Z,22.97
2019-05-20T07:35:30.241Z,24.33
2019-05-20T07:37:53.002Z,24.40
2019-05-20T07:40:48.412Z,23.53
2019-05-20T07:43:18.790Z,25.27
2019-05-20T07:45:49.646Z,23.30
2019-05-20T07:48:20.328Z,26.20
2019-05-20T07:50:50.887Z,30.00
2019-05-20T07:53:21.411Z,24.50
2019-05-20T07:56:11.821Z,21.97
2019-05-20T07:58:46.724Z,26.43
2019-05-20T08:01:17.217Z,22.23
2019-05-20T08:03:47.685Z,25.83
2019-05-20T08:06:19.099Z,23.60
2019-05-20T08:08:50.630Z,22.10
2019-05-20T08:11:21.063Z,21.77
2019-05-20T08:13:51.533Z,23.03
2019-05-20T08:16:21.978Z,24.47
2019-05-20T08:18:52.496Z,25.90
2019-05-20T08:21:22.918Z,24.03
2019-05-20T08:23:53.338Z,26.13
2019-05-20T08:26:23.798Z,25.83
2019-05-20T08:28:54.403Z,24.80
2019-05-20T08:31:24.931Z,25.53
2019-05-20T08:33:55.725Z,24.60
2019-05-20T08:36:26.455Z,24.23
2019-05-20T08:38:56.751Z,25.93
2019-05-20T08:41:27.785Z,27.37
2019-05-20T08:43:58.186Z,26.23
2019-05-20T08:46:28.623Z,25.37
2019-05-20T08:48:59.472Z,28.30
2019-05-20T08:51:29.824Z,28.13
2019-05-20T08:54:00.243Z,28.47
2019-05-20T08:56:30.817Z,27.50
2019-05-20T08:59:01.235Z,25.23
2019-05-20T09:01:31.580Z,27.33
2019-05-20T09:04:01.882Z,26.47
2019-05-20T09:06:32.260Z,27.77
2019-05-20T09:09:02.759Z,27.17
2019-05-20T09:11:33.305Z,26.47
2019-05-20T09:14:05.088Z,27.10
2019-05-20T09:16:35.476Z,31.60
2019-05-20T09:19:05.943Z,33.40
2019-05-20T09:21:36.313Z,28.73
2019-05-20T09:24:06.671Z,31.57
2019-05-20T09:26:37.119Z,32.37
2019-05-20T09:29:11.304Z,31.80
2019-05-20T09:31:40.039Z,33.37
2019-05-20T09:34:10.516Z,32.60
2019-05-20T09:36:40.989Z,31.50
2019-05-20T09:39:11.344Z,32.60
2019-05-20T09:41:41.796Z,31.07
2019-05-20T09:44:12.087Z,31.43
2019-05-20T09:46:42.732Z,32.53
2019-05-20T09:49:13.290Z,31.30
2019-05-20T09:51:44.105Z,30.43
2019-05-20T09:54:14.467Z,30.47
2019-05-20T09:56:44.967Z,30.50
2019-05-20T09:59:16.421Z,30.70
2019-05-20T10:01:46.993Z,29.50
2019-05-20T10:04:17.337Z,28.50
2019-05-20T10:06:47.784Z,28.70
2019-05-20T10:09:18.248Z,26.67
2019-05-20T10:11:48.634Z,32.40
2019-05-20T10:14:19.045Z,38.33
2019-05-20T10:16:49.507Z,28.13
2019-05-20T10:19:19.925Z,25.27
2019-05-20T10:21:50.376Z,26.63
2019-05-20T10:24:20.735Z,29.77
2019-05-20T10:26:51.229Z,29.23
2019-05-20T10:29:21.624Z,30.27
2019-05-20T10:31:52.017Z,29.63
2019-05-20T10:34:22.346Z,25.77
2019-05-20T10:36:52.703Z,30.63
2019-05-20T10:39:23.008Z,29.03
2019-05-20T10:41:53.367Z,31.97
2019-05-20T10:44:23.674Z,32.73
2019-05-20T10:46:54.079Z,30.87
2019-05-20T10:49:24.467Z,28.40
2019-05-20T10:51:55.452Z,29.07
2019-05-20T10:54:25.911Z,31.37
2019-05-20T10:56:59.556Z,30.93
2019-05-20T10:59:28.439Z,30.47
2019-05-20T11:01:58.829Z,26.90
2019-05-20T11:04:29.287Z,31.50
2019-05-20T11:06:59.725Z,31.93
2019-05-20T11:09:30.158Z,31.77
2019-05-20T11:12:00.537Z,33.20
2019-05-20T11:14:30.954Z,30.63
2019-05-20T11:17:01.228Z,31.30
2019-05-20T11:19:31.830Z,30.17
2019-05-20T11:22:02.138Z,32.77
2019-05-20T11:24:32.586Z,30.87
2019-05-20T11:27:02.883Z,34.13
2019-05-20T11:29:34.831Z,32.30
2019-05-20T11:32:05.364Z,33.57
2019-05-20T11:34:35.816Z,34.50
2019-05-20T11:37:06.382Z,35.00
2019-05-20T11:39:36.783Z,33.33
2019-05-20T11:42:07.155Z,39.60
2019-05-20T11:44:37.528Z,36.77
2019-05-20T11:47:07.996Z,36.60
2019-05-20T11:49:38.306Z,34.40
2019-05-20T11:52:08.733Z,37.57
2019-05-20T11:54:39.067Z,38.37
2019-05-20T11:57:09.514Z,35.47
2019-05-20T11:59:39.826Z,33.70
2019-05-20T12:02:10.422Z,36.53
2019-05-20T12:04:40.853Z,35.90
2019-05-20T12:07:11.307Z,38.10
2019-05-20T12:09:49.807Z,37.73
2019-05-20T12:12:13.686Z,40.77
2019-05-20T12:14:43.979Z,37.10
2019-05-20T12:17:14.468Z,34.97
2019-05-20T12:19:44.894Z,37.73
2019-05-20T12:22:15.195Z,41.90
2019-05-20T12:24:45.559Z,40.03
2019-05-20T12:27:15.839Z,42.00
2019-05-20T12:29:46.218Z,39.57
2019-05-20T12:32:16.516Z,38.50
2019-05-20T12:34:47.671Z,39.07
2019-05-20T12:37:18.261Z,37.07
2019-05-20T12:40:05.535Z,40.73
2019-05-20T12:42:20.791Z,39.10
2019-05-20T12:44:51.227Z,36.00
2019-05-20T12:47:21.631Z,39.47
2019-05-20T12:49:52.872Z,40.20
2019-05-20T12:52:23.303Z,39.47
2019-05-20T12:55:06.674Z,37.73
2019-05-20T12:57:25.927Z,35.63
2019-05-20T12:59:56.358Z,37.53
2019-05-20T13:02:27.626Z,32.23
2019-05-20T13:04:57.982Z,33.53
2019-05-20T13:07:28.427Z,33.77
2019-05-20T13:10:02.834Z,33.37
2019-05-20T13:12:30.827Z,32.50
2019-05-20T13:15:01.123Z,31.27
2019-05-20T13:17:31.530Z,36.33
2019-05-20T13:20:04.300Z,32.03
2019-05-20T13:22:34.734Z,35.40
2019-05-20T13:25:05.461Z,31.40
2019-05-20T13:27:35.832Z,33.10
2019-05-20T13:30:06.400Z,31.47
2019-05-20T13:32:36.937Z,34.20
2019-05-20T13:35:07.918Z,35.67
2019-05-20T13:37:38.271Z,30.80
2019-05-20T13:40:09.097Z,33.53
2019-05-20T13:42:39.546Z,36.70
2019-05-20T13:45:10.127Z,33.67
2019-05-20T13:47:41.447Z,32.67
2019-05-20T13:50:12.007Z,34.07
2019-05-20T13:52:42.357Z,38.43
2019-05-20T13:55:13.064Z,34.80
2019-05-20T13:57:44.488Z,33.97
2019-05-20T14:00:16.618Z,34.30
2019-05-20T14:02:47.004Z,34.07
2019-05-20T14:05:17.631Z,32.87
2019-05-20T14:07:48.004Z,35.27
2019-05-20T14:10:18.457Z,31.67
2019-05-20T14:12:48.924Z,34.43
2019-05-20T14:15:19.409Z,34.73
2019-05-20T14:17:49.843Z,33.87
2019-05-20T14:20:20.415Z,32.00
2019-05-20T14:22:50.859Z,33.70
2019-05-20T14:25:21.393Z,33.47
2019-05-20T14:27:51.988Z,36.73
2019-05-20T14:30:22.734Z,37.97
2019-05-20T14:32:53.127Z,35.50
2019-05-20T14:35:23.550Z,38.33
2019-05-20T14:37:53.935Z,36.00
2019-05-20T14:40:24.374Z,38.00
2019-05-20T14:42:54.786Z,35.87
2019-05-20T14:45:25.245Z,36.00
2019-05-20T14:47:55.677Z,38.77
2019-05-20T14:50:26.073Z,42.00
2019-05-20T14:52:56.521Z,40.83
2019-05-20T14:55:26.998Z,40.40
2019-05-20T14:57:57.505Z,39.77
2019-05-20T15:00:27.935Z,43.17
2019-05-20T15:02:58.254Z,39.87
2019-05-20T15:05:28.661Z,39.10
2019-05-20T15:07:58.998Z,43.47
2019-05-20T15:10:29.373Z,43.67
2019-05-20T15:12:59.637Z,41.07
2019-05-20T15:15:30.256Z,41.00
2019-05-20T15:18:00.701Z,44.83
2019-05-20T15:20:31.961Z,40.30
2019-05-20T15:23:02.363Z,43.47
2019-05-20T15:25:32.812Z,45.37
2019-05-20T15:28:03.521Z,41.43
2019-05-20T15:30:33.947Z,42.37
2019-05-20T15:33:04.496Z,43.37
2019-05-20T15:35:35.044Z,40.30
2019-05-20T15:38:05.416Z,38.10
2019-05-20T15:40:35.768Z,39.30
2019-05-20T15:43:06.146Z,38.90
2019-05-20T15:45:36.500Z,39.80
2019-05-20T15:48:07.042Z,41.30
2019-05-20T15:50:37.389Z,39.57
2019-05-20T15:53:11.296Z,36.60
2019-05-20T15:55:39.992Z,37.00
2019-05-20T15:58:10.476Z,37.73
2019-05-20T16:00:40.883Z,37.23
2019-05-20T16:03:11.175Z,37.33
2019-05-20T16:05:41.555Z,37.33
2019-05-20T16:08:11.952Z,35.57
2019-05-20T16:10:42.406Z,35.43
2019-05-20T16:13:12.751Z,34.07
2019-05-20T16:15:43.127Z,34.57
2019-05-20T16:18:13.690Z,36.63
2019-05-20T16:20:44.109Z,36.20
2019-05-20T16:23:17.680Z,38.93
2019-05-20T16:25:48.428Z,36.33
2019-05-20T16:28:18.894Z,37.07
2019-05-20T16:30:49.375Z,39.53
2019-05-20T16:33:19.913Z,36.03
2019-05-20T16:35:50.351Z,36.77
2019-05-20T16:38:20.776Z,38.97
2019-05-20T16:40:51.183Z,35.33
2019-05-20T16:43:21.639Z,34.37
2019-05-20T16:45:52.104Z,33.30
2019-05-20T16:48:22.572Z,34.90
2019-05-20T16:50:53.006Z,35.43
2019-05-20T16:53:23.428Z,34.47
2019-05-20T16:55:53.807Z,36.17
2019-05-20T16:58:24.346Z,32.90
2019-05-20T17:00:54.717Z,32.47
2019-05-20T17:03:25.177Z,30.23
2019-05-20T17:05:56.545Z,30.80
2019-05-20T17:08:26.953Z,29.27
2019-05-20T17:10:57.305Z,29.53
2019-05-20T17:13:27.798Z,30.73
2019-05-20T17:15:58.196Z,27.73
2019-05-20T17:18:28.581Z,27.93
2019-05-20T17:20:59.035Z,29.93
2019-05-20T17:23:29.850Z,27.23
2019-05-20T17:26:00.239Z,27.57
2019-05-20T17:28:30.655Z,25.37
2019-05-20T17:31:01.130Z,28.43
2019-05-20T17:33:31.491Z,25.70
2019-05-20T17:36:02.265Z,24.50
2019-05-20T17:38:32.712Z,26.43
2019-05-20T17:41:03.102Z,27.60
2019-05-20T17:43:33.634Z,27.40
2019-05-20T17:46:05.182Z,30.63
2019-05-20T17:48:35.937Z,25.73
2019-05-20T17:51:06.592Z,29.33
2019-05-20T17:53:36.969Z,28.30
2019-05-20T17:56:07.498Z,29.27
2019-05-20T17:58:37.864Z,32.17
2019-05-20T18:01:15.360Z,32.03
2019-05-20T18:03:40.321Z,32.07
2019-05-20T18:06:10.673Z,31.03
2019-05-20T18:08:44.874Z,34.97
2019-05-20T18:11:15.315Z,30.97
2019-05-20T18:13:45.764Z,32.20
2019-05-20T18:16:16.286Z,32.00
2019-05-20T18:18:46.596Z,30.73
2019-05-20T18:21:17.052Z,35.27
2019-05-20T18:23:47.499Z,30.33
2019-05-20T18:26:17.916Z,30.23
2019-05-20T18:28:48.611Z,32.37
2019-05-20T18:31:31.888Z,34.37
2019-05-20T18:33:51.232Z,33.43
2019-05-20T18:36:21.647Z,34.73
2019-05-20T18:38:51.960Z,28.73
2019-05-20T18:41:22.475Z,30.57
2019-05-20T18:43:52.787Z,34.73
2019-05-20T18:46:23.168Z,32.97
2019-05-20T18:48:53.528Z,32.43
2019-05-20T18:51:23.940Z,31.07
2019-05-20T18:53:54.415Z,29.23
2019-05-20T18:56:24.813Z,32.07
2019-05-20T18:58:55.240Z,32.10
2019-05-20T19:01:25.643Z,33.67
2019-05-20T19:03:56.116Z,32.93
2019-05-20T19:06:26.594Z,33.83
2019-05-20T19:08:56.946Z,35.90
2019-05-20T19:11:27.387Z,38.53
2019-05-20T19:13:57.759Z,35.30
2019-05-20T19:16:28.212Z,39.47
2019-05-20T19:18:58.763Z,41.37
2019-05-20T19:21:29.251Z,40.67
2019-05-20T19:23:59.720Z,40.73
2019-05-20T19:26:30.274Z,40.53
2019-05-20T19:29:02.101Z,41.17
2019-05-20T19:31:32.491Z,42.40
2019-05-20T19:34:02.857Z,43.93
2019-05-20T19:36:33.279Z,43.63
2019-05-20T19:39:06.539Z,47.07
2019-05-20T19:41:38.566Z,44.27
2019-05-20T19:44:13.206Z,48.30
2019-05-20T19:46:42.226Z,44.43
2019-05-20T19:49:13.562Z,44.87
2019-05-20T19:51:44.026Z,48.40
2019-05-20T19:54:14.414Z,48.63
2019-05-20T19:56:44.829Z,48.53
2019-05-20T19:59:15.281Z,43.37
2019-05-20T20:01:45.725Z,45.33
2019-05-20T20:04:16.109Z,44.57
2019-05-20T20:06:46.413Z,45.40
2019-05-20T20:09:16.773Z,42.93
2019-05-20T20:11:47.138Z,45.60
2019-05-20T20:14:17.502Z,46.33
2019-05-20T20:16:49.450Z,39.47
2019-05-20T20:19:19.831Z,40.27
2019-05-20T20:21:50.110Z,33.57
2019-05-20T20:24:20.526Z,31.37
2019-05-20T20:26:50.841Z,28.17
2019-05-20T20:29:21.113Z,26.67
2019-05-20T20:31:51.578Z,25.83
2019-05-20T20:34:21.931Z,24.87
2019-05-20T20:36:52.350Z,25.53
2019-05-20T20:39:22.701Z,24.87
2019-05-20T20:41:53.102Z,25.00
2019-05-20T20:44:23.548Z,21.90
2019-05-20T20:46:53.912Z,24.67
2019-05-20T20:49:24.215Z,24.57
2019-05-20T20:51:54.578Z,24.60
2019-05-20T20:54:24.848Z,25.33
2019-05-20T20:56:55.578Z,26.87
2019-05-20T20:59:25.858Z,25.73
2019-05-20T21:01:59.069Z,26.67
2019-05-20T21:04:28.304Z,25.80
2019-05-20T21:06:59.725Z,25.90
2019-05-20T21:09:30.022Z,29.53
2019-05-20T21:12:00.374Z,28.00
2019-05-20T21:14:31.170Z,28.83
2019-05-20T21:17:03.372Z,28.43
2019-05-20T21:19:33.729Z,28.73
2019-05-20T21:22:04.100Z,28.77
2019-05-20T21:24:35.411Z,30.13
2019-05-20T21:27:05.932Z,30.40
2019-05-20T21:29:36.213Z,32.37
2019-05-20T21:32:06.573Z,31.53
2019-05-20T21:34:36.941Z,32.93
2019-05-20T21:37:07.394Z,32.33
2019-05-20T21:39:37.766Z,31.77
2019-05-20T21:42:08.095Z,33.27
2019-05-20T21:44:38.521Z,33.70
2019-05-20T21:47:16.287Z,34.27
2019-05-20T21:49:46.629Z,33.73
2019-05-20T21:52:16.990Z,33.37
2019-05-20T21:54:47.376Z,31.17
2019-05-20T21:57:17.642Z,32.93
2019-05-20T21:59:47.915Z,34.77
2019-05-20T22:02:18.340Z,29.63
2019-05-20T22:04:48.798Z,32.90
2019-05-20T22:07:19.379Z,32.33
2019-05-20T22:09:50.426Z,31.37
2019-05-20T22:12:21.015Z,33.50
2019-05-20T22:14:51.575Z,33.07
2019-05-20T22:17:22.080Z,33.77
2019-05-20T22:19:52.456Z,32.57
2019-05-20T22:22:31.692Z,28.20
2019-05-20T22:25:03.123Z,29.00
2019-05-20T22:27:34.461Z,30.43
2019-05-20T22:30:05.453Z,31.43
2019-05-20T22:32:35.797Z,31.50
2019-05-20T22:35:06.508Z,30.00
2019-05-20T22:37:36.937Z,31.73
2019-05-20T22:40:08.421Z,28.37
2019-05-20T22:42:38.761Z,29.27
2019-05-20T22:45:09.296Z,26.10
2019-05-20T22:47:40.495Z,23.57
2019-05-20T22:50:11.049Z,25.93
2019-05-20T22:52:41.488Z,26.30
2019-05-20T22:55:11.888Z,20.93
2019-05-20T22:57:42.264Z,26.03
2019-05-20T23:00:13.013Z,26.83
2019-05-20T23:02:43.494Z,23.60
2019-05-20T23:05:13.905Z,23.57
2019-05-20T23:07:44.294Z,25.17
2019-05-20T23:10:15.362Z,25.27
2019-05-20T23:12:45.671Z,26.73
2019-05-20T23:15:16.513Z,25.27
2019-05-20T23:17:46.952Z,26.70
2019-05-20T23:20:17.392Z,26.20
2019-05-20T23:22:47.847Z,26.83
2019-05-20T23:25:18.117Z,26.93
2019-05-20T23:27:48.475Z,28.93
2019-05-20T23:30:18.888Z,25.37
2019-05-20T23:32:49.175Z,27.27
2019-05-20T23:35:19.618Z,27.23
2019-05-20T23:37:49.982Z,27.33
2019-05-20T23:40:21.419Z,25.80
2019-05-20T23:42:51.848Z,25.83
2019-05-20T23:45:22.284Z,26.33
2019-05-20T23:47:52.671Z,28.43
2019-05-20T23:50:23.059Z,26.13
2019-05-20T23:52:53.512Z,27.50
2019-05-20T23:55:23.884Z,27.37
2019-05-20T23:57:54.276Z,26.83
